Time;durP1;ratioP1;P1;durP2;ratioP2;P2;SDS_P1;SDS_P2;PMS_P1;PMS_P2;Temp;Humidity;BMP_temperature;BMP_pressure;BME280_temperature;BME280_humidity;BME280_pressure;Samples;Min_cycle;Max_cycle;Signal;HPM_P1;HPM_P2
2023/06/20 00:01:05;;;;;;;;;;;;;;;;;;5053680;28;20051;-83
2023/06/20 00:03:32;;;;;;;14.15;7.70;;;;;;;;;;5069502;28;19921;-82
2023/06/20 00:05:58;;;;;;;13.88;7.60;;;;;;;;;;5070080;28;20048;-83
2023/06/20 00:08:24;;;;;;;;;;;;;;;;;;5070035;28;20045;-83
2023/06/20 00:10:50;;;;;;;14.90;7.43;;;;;;;;;;5070257;28;19925;-82
2023/06/20 00:13:17;;;;;;;;;;;;;;;;;;5070338;28;20436;-82
2023/06/20 00:15:44;;;;;;;13.77;7.72;;;;;;;;;;5070346;28;19925;-82
2023/06/20 00:18:10;;;;;;;15.02;7.93;;;;;;;;;;5068203;28;20159;-83
2023/06/20 00:20:36;;;;;;;;;;;;;;;;;;5070574;28;20114;-82
2023/06/20 00:23:02;;;;;;;13.35;8.15;;;;;;;;;;5066819;28;19925;-83
2023/06/20 00:25:28;;;;;;;16.60;8.98;;;;;;;;;;5069921;28;20046;-82
2023/06/20 00:27:54;;;;;;;14.02;7.90;;;;;;;;;;5050209;28;20057;-82
2023/06/20 00:30:20;;;;;;;;;;;;;;;;;;5071659;28;20041;-83
2023/06/20 00:32:46;;;;;;;16.45;9.80;;;;;;;;;;5069269;28;19986;-82
2023/06/20 00:35:12;;;;;;;;;;;;;;;;;;5070283;28;20123;-82
2023/06/20 00:37:38;;;;;;;15.88;8.30;;;;;;;;;;5069452;28;20023;-82
2023/06/20 00:40:07;;;;;;;17.05;8.82;;;;;;;;;;5036449;28;20190;-82
2023/06/20 00:42:33;;;;;;;16.23;8.48;;;;;;;;;;5053240;28;20055;-83
2023/06/20 00:44:59;;;;;;;16.77;8.65;;;;;;;;;;5069759;28;20289;-83
2023/06/20 00:47:25;;;;;;;;;;;;;;;;;;5052839;28;20044;-83
2023/06/20 00:49:51;;;;;;;16.80;9.38;;;;;;;;;;5069610;28;20259;-82
2023/06/20 00:52:18;;;;;;;12.27;8.55;;;;;;;;;;5052022;28;20118;-82
2023/06/20 00:54:46;;;;;;;14.18;8.32;;;;;;;;;;5069188;28;20075;-82
2023/06/20 00:57:13;;;;;;;13.02;7.10;;;;;;;;;;5054816;28;20049;-81
2023/06/20 00:59:43;;;;;;;14.02;7.90;;;;;;;;;;5049777;28;20366;-82
2023/06/20 01:02:10;;;;;;;15.85;9.30;;;;;;;;;;5048961;28;20055;-82
2023/06/20 01:04:36;;;;;;;13.63;8.70;;;;;;;;;;5049001;28;20045;-82
2023/06/20 01:07:08;;;;;;;17.27;10.13;;;;;;;;;;5060387;28;20102;-82
2023/06/20 01:09:44;;;;;;;16.42;9.75;;;;;;;;;;5066294;28;20548;-82
2023/06/20 01:12:10;;;;;;;19.00;9.97;;;;;;;;;;5049149;28;20140;-82
2023/06/20 01:14:36;;;;;;;;;;;;;;;;;;5062116;28;20075;-82
2023/06/20 01:17:16;;;;;;;15.82;8.70;;;;;;;;;;5064356;28;20404;-82
2023/06/20 01:20:10;;;;;;;17.45;9.73;;;;;;;;;;5068691;28;20067;-82
2023/06/20 01:22:41;;;;;;;16.98;10.27;;;;;;;;;;5069170;28;20080;-81
2023/06/20 01:25:10;;;;;;;15.60;9.50;;;;;;;;;;5069205;28;20151;-82
2023/06/20 01:27:41;;;;;;;17.75;10.05;;;;;;;;;;5052531;28;20049;-82
2023/06/20 01:30:09;;;;;;;14.60;9.60;;;;;;;;;;5068721;28;20080;-82
2023/06/20 01:32:43;;;;;;;13.90;8.57;;;;;;;;;;5051988;28;20045;-81
2023/06/20 01:35:11;;;;;;;17.35;9.93;;;;;;;;;;5067559;28;20055;-82
2023/06/20 01:37:39;;;;;;;19.15;9.82;;;;;;;;;;5071604;28;20781;-81
2023/06/20 01:40:07;;;;;;;18.70;9.77;;;;;;;;;;5065387;28;20459;-82
2023/06/20 01:42:34;;;;;;;18.63;9.68;;;;;;;;;;5069904;28;20049;-82
2023/06/20 01:45:01;;;;;;;12.18;7.60;;;;;;;;;;5055528;28;20053;-82
2023/06/20 01:47:27;;;;;;;16.48;9.10;;;;;;;;;;5071862;28;20102;-82
2023/06/20 01:49:54;;;;;;;18.40;9.95;;;;;;;;;;5056208;28;20052;-82
2023/06/20 01:52:21;;;;;;;19.77;10.70;;;;;;;;;;5063144;28;20399;-82
2023/06/20 01:54:49;;;;;;;14.93;8.82;;;;;;;;;;5056590;28;20045;-82
2023/06/20 01:57:16;;;;;;;15.70;9.77;;;;;;;;;;5039489;28;20049;-82
2023/06/20 01:59:43;;;;;;;12.68;7.38;;;;;;;;;;5069622;28;20041;-81
2023/06/20 02:02:09;;;;;;;17.55;9.82;;;;;;;;;;5086196;28;20055;-81
2023/06/20 02:04:36;;;;;;;15.77;8.65;;;;;;;;;;5055640;28;20417;-81
2023/06/20 02:07:06;;;;;;;14.95;9.48;;;;;;;;;;5072518;28;20056;-84
2023/06/20 02:09:32;;;;;;;15.65;9.88;;;;;;;;;;5055963;28;20056;-83
2023/06/20 02:11:59;;;;;;;20.40;11.30;;;;;;;;;;5072735;28;20052;-83
2023/06/20 02:14:26;;;;;;;23.23;11.30;;;;;;;;;;5071974;28;20576;-83
2023/06/20 02:16:53;;;;;;;19.83;11.80;;;;;;;;;;5072527;28;20059;-83
2023/06/20 02:19:19;;;;;;;20.83;11.23;;;;;;;;;;5069363;28;20060;-83
2023/06/20 02:21:46;;;;;;;20.70;11.70;;;;;;;;;;5062937;28;20087;-82
2023/06/20 02:24:15;;;;;;;20.67;11.60;;;;;;;;;;5052169;28;20084;-83
2023/06/20 02:26:43;;;;;;;15.85;9.55;;;;;;;;;;5052439;28;20143;-83
2023/06/20 02:29:10;;;;;;;15.90;9.85;;;;;;;;;;5068774;28;20080;-82
2023/06/20 02:31:41;;;;;;;17.00;10.77;;;;;;;;;;5074422;28;20497;-83
2023/06/20 02:34:09;;;;;;;16.85;10.05;;;;;;;;;;5071488;28;20394;-83
2023/06/20 02:36:36;;;;;;;20.98;11.70;;;;;;;;;;5071710;28;20080;-83
2023/06/20 02:39:04;;;;;;;19.42;10.35;;;;;;;;;;5071160;28;20048;-83
2023/06/20 02:41:30;;;;;;;19.50;12.20;;;;;;;;;;5063236;28;20152;-83
2023/06/20 02:43:56;;;;;;;15.25;9.88;;;;;;;;;;5062305;28;20060;-83
2023/06/20 02:46:23;;;;;;;;;;;;;;;;;;5060602;28;20045;-83
2023/06/20 02:49:11;;;;;;;21.35;11.43;;;;;;;;;;5051236;28;19920;-83
2023/06/20 02:51:55;;;;;;;26.95;12.13;;;;;;;;;;5051187;28;20125;-83
2023/06/20 02:54:25;;;;;;;17.55;10.95;;;;;;;;;;5051685;28;20045;-83
2023/06/20 02:56:53;;;;;;;23.90;11.60;;;;;;;;;;5052036;28;20056;-83
2023/06/20 02:59:20;;;;;;;18.67;12.52;;;;;;;;;;5034838;28;20056;-83
2023/06/20 03:01:47;;;;;;;24.00;12.57;;;;;;;;;;5053376;28;20494;-83
2023/06/20 03:04:14;;;;;;;22.75;12.35;;;;;;;;;;5050613;28;20045;-83
2023/06/20 03:06:43;;;;;;;25.83;13.02;;;;;;;;;;5068853;28;20132;-84
2023/06/20 03:09:10;;;;;;;18.00;10.50;;;;;;;;;;5051686;28;20080;-83
2023/06/20 03:11:36;;;;;;;19.23;11.45;;;;;;;;;;5050958;28;20136;-83
2023/06/20 03:14:03;;;;;;;22.27;12.63;;;;;;;;;;5051609;28;20368;-83
2023/06/20 03:16:30;;;;;;;15.63;9.27;;;;;;;;;;5067641;28;20079;-83
2023/06/20 03:18:56;;;;;;;13.65;9.27;;;;;;;;;;5033920;28;20049;-83
2023/06/20 03:21:22;;;;;;;;;;;;;;;;;;5070123;28;20132;-84
2023/06/20 03:23:48;;;;;;;18.90;11.45;;;;;;;;;;5070618;28;19950;-83
2023/06/20 03:26:14;;;;;;;;;;;;;;;;;;5049112;28;20126;-83
2023/06/20 03:28:41;;;;;;;14.32;9.55;;;;;;;;;;5051198;28;19946;-83
2023/06/20 03:31:07;;;;;;;13.80;8.95;;;;;;;;;;5065581;28;20051;-83
2023/06/20 03:33:33;;;;;;;19.52;10.95;;;;;;;;;;5066517;28;20075;-83
2023/06/20 03:36:00;;;;;;;;;;;;;;;;;;5068232;28;20103;-84
2023/06/20 03:38:26;;;;;;;20.60;11.18;;;;;;;;;;5066881;28;19928;-83
2023/06/20 03:40:52;;;;;;;18.92;10.63;;;;;;;;;;5067731;28;20049;-83
2023/06/20 03:43:18;;;;;;;;;;;;;;;;;;5064601;28;20059;-83
2023/06/20 03:45:44;;;;;;;20.23;12.43;;;;;;;;;;5062653;28;19971;-84
2023/06/20 03:48:10;;;;;;;;;;;;;;;;;;5050457;28;20053;-84
2023/06/20 03:50:36;;;;;;;13.88;7.88;;;;;;;;;;5067063;28;19924;-84
2023/06/20 03:53:02;;;;;;;;;;;;;;;;;;5070208;28;20044;-84
2023/06/20 03:55:28;;;;;;;19.55;12.13;;;;;;;;;;5070301;28;20404;-83
2023/06/20 03:57:55;;;;;;;;;;;;;;;;;;5063147;28;20540;-83
2023/06/20 04:00:21;;;;;;;13.75;7.70;;;;;;;;;;5066264;28;19921;-83
2023/06/20 04:02:47;;;;;;;17.63;10.93;;;;;;;;;;5049549;28;20860;-84
2023/06/20 04:05:13;;;;;;;;;;;;;;;;;;5051267;28;20714;-84
2023/06/20 04:07:42;;;;;;;14.73;9.18;;;;;;;;;;5065535;28;19997;-83
2023/06/20 04:10:12;;;;;;;17.02;10.27;;;;;;;;;;5069636;28;20048;-83
2023/06/20 04:12:39;;;;;;;17.08;9.60;;;;;;;;;;5066366;28;20504;-84
2023/06/20 04:15:05;;;;;;;14.85;10.18;;;;;;;;;;5053299;28;20048;-84
2023/06/20 04:17:32;;;;;;;22.08;12.27;;;;;;;;;;5065426;28;20041;-83
2023/06/20 04:19:59;;;;;;;20.83;11.55;;;;;;;;;;5050054;28;20106;-83
2023/06/20 04:22:26;;;;;;;15.45;10.52;;;;;;;;;;5049108;28;20139;-84
2023/06/20 04:24:56;;;;;;;19.77;11.32;;;;;;;;;;5045234;28;20040;-83
2023/06/20 04:27:22;;;;;;;13.85;8.98;;;;;;;;;;5066165;28;20098;-84
2023/06/20 04:29:48;;;;;;;;;;;;;;;;;;5051081;28;20073;-82
2023/06/20 04:32:14;;;;;;;17.63;10.55;;;;;;;;;;5058671;28;20443;-83
2023/06/20 04:34:40;;;;;;;;;;;;;;;;;;5049380;28;20144;-83
2023/06/20 04:37:06;;;;;;;17.77;10.18;;;;;;;;;;5066436;28;20011;-83
2023/06/20 04:39:32;;;;;;;;;;;;;;;;;;5057862;28;20088;-83
2023/06/20 04:41:58;;;;;;;18.42;9.68;;;;;;;;;;5066643;28;19980;-84
2023/06/20 04:44:24;;;;;;;;;;;;;;;;;;5066590;28;20052;-83
2023/06/20 04:46:50;;;;;;;19.30;10.32;;;;;;;;;;5066414;28;19921;-83
2023/06/20 04:49:16;;;;;;;17.42;10.48;;;;;;;;;;5048900;28;20045;-84
2023/06/20 04:51:42;;;;;;;17.65;9.98;;;;;;;;;;5048585;28;20827;-84
2023/06/20 04:54:08;;;;;;;;;;;;;;;;;;5067152;28;20685;-84
2023/06/20 04:56:40;;;;;;;17.35;9.70;;;;;;;;;;5065973;28;19920;-83
2023/06/20 04:59:06;;;;;;;20.45;10.82;;;;;;;;;;5066526;28;20045;-83
2023/06/20 05:01:33;;;;;;;17.85;11.20;;;;;;;;;;5059625;28;20087;-84
2023/06/20 05:03:59;;;;;;;19.20;11.30;;;;;;;;;;5067791;28;20045;-83
2023/06/20 05:06:25;;;;;;;18.48;9.35;;;;;;;;;;5055772;28;20075;-83
2023/06/20 05:08:52;;;;;;;;;;;;;;;;;;5082665;28;20131;-83
2023/06/20 05:11:18;;;;;;;14.00;8.93;;;;;;;;;;5049974;28;20327;-83
2023/06/20 05:13:44;;;;;;;18.20;10.68;;;;;;;;;;5035300;28;20048;-83
2023/06/20 05:16:10;;;;;;;15.23;9.35;;;;;;;;;;5052218;28;20061;-84
2023/06/20 05:18:36;;;;;;;;;;;;;;;;;;5052146;28;20499;-83
2023/06/20 05:21:02;;;;;;;17.77;11.20;;;;;;;;;;5054979;28;19931;-83
2023/06/20 05:23:28;;;;;;;15.00;9.93;;;;;;;;;;5086087;28;20497;-83
2023/06/20 05:25:54;;;;;;;;;;;;;;;;;;5073772;28;20131;-84
2023/06/20 05:28:21;;;;;;;20.10;10.77;;;;;;;;;;5062319;28;20007;-83
2023/06/20 05:30:47;;;;;;;17.23;10.80;;;;;;;;;;5055439;28;20913;-81
2023/06/20 05:33:13;;;;;;;;;;;;;;;;;;5073157;28;20056;-86
2023/06/20 05:35:41;;;;;;;16.52;9.48;;;;;;;;;;5073138;28;19947;-85
2023/06/20 05:38:07;;;;;;;17.00;10.60;;;;;;;;;;5073311;28;20056;-85
2023/06/20 05:40:33;;;;;;;;;;;;;;;;;;5056852;28;20090;-84
2023/06/20 05:42:59;;;;;;;12.63;8.30;;;;;;;;;;5071732;28;19982;-83
2023/06/20 05:45:25;;;;;;;;;;;;;;;;;;5038527;28;20044;-83
2023/06/20 05:47:51;;;;;;;15.10;9.77;;;;;;;;;;5056919;28;19928;-83
2023/06/20 05:50:17;;;;;;;17.13;9.50;;;;;;;;;;5053124;28;20049;-83
2023/06/20 05:52:43;;;;;;;15.75;9.60;;;;;;;;;;5052321;28;20052;-83
2023/06/20 05:55:09;;;;;;;;;;;;;;;;;;5053540;28;20052;-83
2023/06/20 05:57:37;;;;;;;18.07;9.47;;;;;;;;;;5069029;28;20382;-83
2023/06/20 06:00:11;;;;;;;15.93;9.63;;;;;;;;;;5036337;28;20127;-83
2023/06/20 06:02:37;;;;;;;14.25;9.90;;;;;;;;;;5051728;28;20048;-83
2023/06/20 06:05:03;;;;;;;18.50;11.38;;;;;;;;;;5053146;28;20084;-83
2023/06/20 06:07:30;;;;;;;15.65;10.07;;;;;;;;;;5040003;28;20057;-83
2023/06/20 06:09:56;;;;;;;18.05;10.35;;;;;;;;;;5036285;28;20041;-83
2023/06/20 06:12:22;;;;;;;21.05;13.02;;;;;;;;;;5052731;28;20044;-83
2023/06/20 06:14:51;;;;;;;22.17;11.90;;;;;;;;;;5057461;28;20267;-84
2023/06/20 06:17:18;;;;;;;16.08;9.40;;;;;;;;;;5052426;28;20045;-83
2023/06/20 06:19:44;;;;;;;17.65;11.23;;;;;;;;;;5034729;28;20049;-83
2023/06/20 06:22:10;;;;;;;;;;;;;;;;;;5069534;28;20076;-83
2023/06/20 06:24:36;;;;;;;22.27;10.15;;;;;;;;;;5072309;28;19976;-83
2023/06/20 06:27:04;;;;;;;14.88;10.05;;;;;;;;;;5053851;28;20482;-83
2023/06/20 06:29:30;;;;;;;21.25;12.00;;;;;;;;;;5071059;28;20094;-83
2023/06/20 06:31:56;;;;;;;;;;;;;;;;;;5055147;28;20076;-83
2023/06/20 06:34:22;;;;;;;20.95;10.60;;;;;;;;;;5071521;28;20393;-83
2023/06/20 06:36:49;;;;;;;13.80;8.57;;;;;;;;;;5071386;28;20147;-83
2023/06/20 06:39:19;;;;;;;16.85;10.07;;;;;;;;;;5066085;28;20095;-69
2023/06/20 06:41:49;;;;;;;19.20;10.90;;;;;;;;;;5077835;28;20055;-69
2023/06/20 06:44:16;;;;;;;15.63;8.35;;;;;;;;;;5073046;28;20074;-71
2023/06/20 06:46:42;;;;;;;23.95;11.10;;;;;;;;;;5072615;28;20041;-84
2023/06/20 06:49:08;;;;;;;22.55;12.40;;;;;;;;;;5072331;28;20064;-83
2023/06/20 06:51:35;;;;;;;18.30;11.95;;;;;;;;;;5070983;28;20053;-85
2023/06/20 06:54:01;;;;;;;13.43;8.85;;;;;;;;;;5072072;28;20391;-84
2023/06/20 06:56:27;;;;;;;19.92;11.18;;;;;;;;;;5088403;28;20059;-84
2023/06/20 06:58:57;;;;;;;11.10;7.70;;;;;;;;;;5066155;28;20033;-84
2023/06/20 07:01:23;;;;;;;15.23;10.88;;;;;;;;;;5035193;28;20112;-84
2023/06/20 07:03:49;;;;;;;10.63;7.22;;;;;;;;;;5056201;28;20131;-84
2023/06/20 07:06:15;;;;;;;;;;;;;;;;;;5052282;28;20099;-84
2023/06/20 07:08:42;;;;;;;13.15;7.88;;;;;;;;;;5050818;28;19921;-84
2023/06/20 07:11:08;;;;;;;12.55;8.27;;;;;;;;;;5034592;28;20067;-84
2023/06/20 07:13:34;;;;;;;;;;;;;;;;;;5060996;28;20057;-83
2023/06/20 07:16:00;;;;;;;14.90;9.73;;;;;;;;;;5051487;28;19933;-84
2023/06/20 07:18:26;;;;;;;18.20;11.60;;;;;;;;;;5050290;28;20781;-84
2023/06/20 07:20:52;;;;;;;;;;;;;;;;;;5050981;28;20565;-84
2023/06/20 07:23:18;;;;;;;18.80;11.77;;;;;;;;;;5051096;28;19958;-84
2023/06/20 07:25:44;;;;;;;20.17;11.48;;;;;;;;;;5050884;28;20096;-85
2023/06/20 07:28:11;;;;;;;;;;;;;;;;;;5035165;28;20603;-84
2023/06/20 07:30:37;;;;;;;9.70;7.03;;;;;;;;;;5050605;28;19931;-83
2023/06/20 07:33:05;;;;;;;24.52;12.25;;;;;;;;;;5054582;28;20080;-84
2023/06/20 07:35:31;;;;;;;20.85;13.25;;;;;;;;;;5050467;28;20052;-85
2023/06/20 07:37:56;;;;;;;;;;;;;;;;;;5058389;28;20131;-84
2023/06/20 07:40:23;;;;;;;22.75;13.15;;;;;;;;;;5051157;28;20274;-85
2023/06/20 07:42:49;;;;;;;22.73;11.90;;;;;;;;;;5053433;28;20048;-84
2023/06/20 07:45:15;;;;;;;;;;;;;;;;;;5038261;28;20048;-85
2023/06/20 07:47:41;;;;;;;31.92;13.73;;;;;;;;;;5069368;28;19930;-84
2023/06/20 07:50:07;;;;;;;25.77;13.48;;;;;;;;;;5070825;28;20040;-86
2023/06/20 07:52:33;;;;;;;15.07;10.40;;;;;;;;;;5068688;28;20044;-80
2023/06/20 07:55:01;;;;;;;22.42;14.23;;;;;;;;;;5070354;28;20133;-71
2023/06/20 07:57:27;;;;;;;20.17;11.25;;;;;;;;;;5069540;28;20055;-70
2023/06/20 07:59:54;;;;;;;15.82;10.15;;;;;;;;;;5062445;28;20113;-69
2023/06/20 08:02:21;;;;;;;12.90;7.68;;;;;;;;;;5069210;28;20119;-80
2023/06/20 08:04:47;;;;;;;12.85;8.27;;;;;;;;;;5071534;28;20405;-80
2023/06/20 08:07:13;;;;;;;15.90;11.43;;;;;;;;;;5088358;28;20143;-69
2023/06/20 08:09:39;;;;;;;16.87;11.00;;;;;;;;;;5090159;28;20048;-70
2023/06/20 08:12:06;;;;;;;11.15;8.68;;;;;;;;;;5090424;28;20072;-67
2023/06/20 08:14:32;;;;;;;15.35;9.50;;;;;;;;;;5080917;28;20040;-70
2023/06/20 08:16:58;;;;;;;17.40;10.35;;;;;;;;;;5070182;28;20043;-70
2023/06/20 08:19:24;;;;;;;17.88;10.07;;;;;;;;;;5089208;28;20044;-70
2023/06/20 08:21:51;;;;;;;15.55;10.10;;;;;;;;;;5052641;28;20078;-71
2023/06/20 08:24:17;;;;;;;12.50;9.52;;;;;;;;;;5073369;28;20084;-69
2023/06/20 08:26:43;;;;;;;12.48;9.35;;;;;;;;;;5063095;28;20044;-70
2023/06/20 08:29:11;;;;;;;13.32;8.25;;;;;;;;;;5079357;28;20047;-70
2023/06/20 08:31:37;;;;;;;12.60;8.82;;;;;;;;;;5089910;28;20101;-67
2023/06/20 08:34:04;;;;;;;17.55;10.07;;;;;;;;;;5083904;28;20106;-67
2023/06/20 08:36:30;;;;;;;14.02;8.40;;;;;;;;;;5075904;28;20048;-66
2023/06/20 08:38:56;;;;;;;13.50;8.63;;;;;;;;;;5088905;28;20089;-67
2023/06/20 08:41:25;;;;;;;14.48;9.65;;;;;;;;;;5078767;28;20040;-67
2023/06/20 08:43:52;;;;;;;11.50;8.80;;;;;;;;;;5066859;28;20101;-66
2023/06/20 08:46:18;;;;;;;14.02;9.05;;;;;;;;;;5073703;28;20082;-71
2023/06/20 08:48:46;;;;;;;12.20;8.68;;;;;;;;;;5089290;28;20387;-83
2023/06/20 08:51:14;;;;;;;13.13;8.40;;;;;;;;;;5088485;28;20162;-82
2023/06/20 08:53:41;;;;;;;12.23;8.48;;;;;;;;;;5090243;28;20055;-71
2023/06/20 08:56:07;;;;;;;13.48;8.63;;;;;;;;;;5090738;28;20539;-70
2023/06/20 08:58:33;;;;;;;15.80;9.15;;;;;;;;;;5088121;28;20393;-70
2023/06/20 09:01:00;;;;;;;14.02;8.70;;;;;;;;;;5080306;28;20044;-67
2023/06/20 09:03:26;;;;;;;12.65;8.48;;;;;;;;;;5071068;28;20044;-70
2023/06/20 09:05:52;;;;;;;12.43;8.90;;;;;;;;;;5069668;28;20052;-79
2023/06/20 09:08:18;;;;;;;18.23;11.70;;;;;;;;;;5083152;28;20049;-84
2023/06/20 09:10:47;;;;;;;11.13;8.00;;;;;;;;;;5052539;28;20129;-84
2023/06/20 09:13:13;;;;;;;13.80;9.45;;;;;;;;;;5070639;28;20050;-83
2023/06/20 09:15:40;;;;;;;16.92;8.65;;;;;;;;;;5089499;28;20493;-86
2023/06/20 09:18:07;;;;;;;13.75;9.88;;;;;;;;;;5065823;28;20111;-85
2023/06/20 09:20:33;;;;;;;10.15;7.60;;;;;;;;;;5065082;28;20056;-79
2023/06/20 09:23:00;;;;;;;11.68;8.60;;;;;;;;;;5070271;28;20059;-71
2023/06/20 09:25:27;;;;;;;12.45;8.10;;;;;;;;;;5081450;28;20044;-70
2023/06/20 09:27:54;;;;;;;8.27;6.25;;;;;;;;;;5079421;28;20050;-73
2023/06/20 09:30:20;;;;;;;11.75;7.28;;;;;;;;;;5090064;28;20048;-77
2023/06/20 09:32:46;;;;;;;10.40;6.97;;;;;;;;;;5089270;28;20047;-77
2023/06/20 09:35:16;;;;;;;10.45;7.45;;;;;;;;;;5077167;28;20149;-77
2023/06/20 09:37:47;;;;;;;9.57;7.60;;;;;;;;;;5060995;28;20076;-77
2023/06/20 09:40:14;;;;;;;12.57;7.53;;;;;;;;;;5061913;28;20045;-77
2023/06/20 09:42:41;;;;;;;11.25;7.88;;;;;;;;;;5088121;28;20055;-77
2023/06/20 09:45:08;;;;;;;11.23;7.78;;;;;;;;;;5079632;28;20044;-75
2023/06/20 09:47:37;;;;;;;13.77;8.70;;;;;;;;;;5089062;28;20051;-75
2023/06/20 09:50:16;;;;;;;8.65;6.40;;;;;;;;;;5075626;28;20055;-76
2023/06/20 09:53:00;;;;;;;12.57;7.35;;;;;;;;;;5070011;28;20689;-73
2023/06/20 09:55:27;;;;;;;8.98;6.78;;;;;;;;;;5089171;28;20401;-78
2023/06/20 09:57:54;;;;;;;8.13;5.75;;;;;;;;;;5087916;28;20109;-76
2023/06/20 10:00:23;;;;;;;8.63;5.72;;;;;;;;;;5092773;28;20159;-85
2023/06/20 10:02:50;;;;;;;10.57;7.45;;;;;;;;;;5078011;28;20086;-83
2023/06/20 10:05:17;;;;;;;9.82;5.80;;;;;;;;;;5062329;28;20150;-86
2023/06/20 10:07:45;;;;;;;7.68;5.10;;;;;;;;;;5081858;28;20453;-86
2023/06/20 10:10:12;;;;;;;7.00;5.07;;;;;;;;;;5068154;28;20098;-87
2023/06/20 10:12:39;;;;;;;8.48;5.88;;;;;;;;;;5067107;28;20052;-86
2023/06/20 10:15:07;;;;;;;8.90;6.55;;;;;;;;;;5085878;28;20047;-87
2023/06/20 10:17:35;;;;;;;8.00;5.05;;;;;;;;;;5091543;28;20048;-88
2023/06/20 10:20:06;;;;;;;9.07;6.72;;;;;;;;;;5074953;28;20109;-87
2023/06/20 10:22:58;;;;;;;8.02;5.43;;;;;;;;;;5075589;28;20109;-87
2023/06/20 10:25:25;;;;;;;7.97;5.40;;;;;;;;;;5098586;28;20060;-86
2023/06/20 10:27:56;;;;;;;8.85;5.43;;;;;;;;;;5086981;28;20473;-84
2023/06/20 10:30:41;;;;;;;7.97;5.63;;;;;;;;;;5068201;28;20117;-85
2023/06/20 10:33:10;;;;;;;10.27;6.13;;;;;;;;;;5056335;28;20048;-68
2023/06/20 10:35:47;;;;;;;7.70;4.88;;;;;;;;;;5086557;28;20501;-78
2023/06/20 10:38:13;;;;;;;6.35;4.88;;;;;;;;;;5086942;28;20125;-87
2023/06/20 10:40:39;;;;;;;8.63;6.30;;;;;;;;;;5062858;28;20080;-86
2023/06/20 10:43:09;;;;;;;10.77;7.43;;;;;;;;;;5092658;28;20094;-88
2023/06/20 10:45:35;;;;;;;12.05;6.28;;;;;;;;;;5076348;28;20044;-89
2023/06/20 10:48:02;;;;;;;11.70;6.32;;;;;;;;;;5067420;28;20172;-89
2023/06/20 10:50:28;;;;;;;7.03;4.85;;;;;;;;;;5069669;28;20072;-88
2023/06/20 10:52:54;;;;;;;8.30;5.18;;;;;;;;;;5051971;28;20092;-83
2023/06/20 10:55:26;;;;;;;6.25;4.68;;;;;;;;;;5052179;28;20061;-88
2023/06/20 10:57:53;;;;;;;8.07;5.20;;;;;;;;;;5052056;28;20053;-86
2023/06/20 11:00:20;;;;;;;7.93;5.25;;;;;;;;;;5071642;28;20048;-87
2023/06/20 11:02:50;;;;;;;9.05;5.68;;;;;;;;;;5070482;28;20051;-88
2023/06/20 11:05:17;;;;;;;5.40;3.50;;;;;;;;;;5089300;28;20036;-79
2023/06/20 11:07:56;;;;;;;7.93;5.90;;;;;;;;;;5092177;28;20098;-80
2023/06/20 11:10:26;;;;;;;7.22;4.28;;;;;;;;;;5090719;28;20059;-79
2023/06/20 11:12:52;;;;;;;8.73;5.80;;;;;;;;;;5092061;28;20047;-79
2023/06/20 11:15:20;;;;;;;5.05;3.83;;;;;;;;;;5078395;28;20471;-80
2023/06/20 11:17:46;;;;;;;6.68;5.03;;;;;;;;;;5091150;28;20052;-68
2023/06/20 11:20:12;;;;;;;5.75;4.10;;;;;;;;;;5090398;28;20055;-80
2023/06/20 11:22:38;;;;;;;13.40;5.57;;;;;;;;;;5090163;28;20052;-79
2023/06/20 11:25:06;;;;;;;10.38;5.40;;;;;;;;;;5085858;28;20145;-80
2023/06/20 11:27:32;;;;;;;10.02;5.50;;;;;;;;;;5064263;28;20063;-79
2023/06/20 11:29:58;;;;;;;5.25;4.00;;;;;;;;;;5084457;28;20044;-85
2023/06/20 11:32:24;;;;;;;8.07;4.78;;;;;;;;;;5077421;28;20081;-83
2023/06/20 11:34:53;;;;;;;13.85;6.40;;;;;;;;;;5089658;28;20047;-83
2023/06/20 11:37:19;;;;;;;6.47;4.97;;;;;;;;;;5071259;28;20044;-83
2023/06/20 11:39:45;;;;;;;7.47;5.32;;;;;;;;;;5066439;28;20053;-82
2023/06/20 11:42:18;;;;;;;5.43;4.13;;;;;;;;;;5083917;28;20123;-83
2023/06/20 11:44:44;;;;;;;8.25;6.65;;;;;;;;;;5072077;28;20048;-85
2023/06/20 11:47:11;;;;;;;5.55;4.38;;;;;;;;;;5062993;28;20153;-87
2023/06/20 11:49:40;;;;;;;6.18;4.18;;;;;;;;;;5074822;28;20039;-83
2023/06/20 11:52:07;;;;;;;7.88;4.55;;;;;;;;;;5086812;28;20169;-82
2023/06/20 11:54:49;;;;;;;5.43;3.97;;;;;;;;;;5091069;28;20051;-83
2023/06/20 11:57:23;;;;;;;7.97;5.38;;;;;;;;;;5090178;28;20048;-84
2023/06/20 11:59:49;;;;;;;7.70;4.53;;;;;;;;;;5090399;28;20560;-83
2023/06/20 12:02:15;;;;;;;7.00;4.75;;;;;;;;;;5072576;28;20130;-83
2023/06/20 12:04:43;;;;;;;6.47;4.47;;;;;;;;;;5079028;28;20090;-84
2023/06/20 12:07:09;;;;;;;11.23;5.15;;;;;;;;;;5089199;28;20117;-84
2023/06/20 12:09:42;;;;;;;7.60;4.70;;;;;;;;;;5076163;28;20070;-85
2023/06/20 12:12:09;;;;;;;10.23;5.22;;;;;;;;;;5070899;28;20122;-85
2023/06/20 12:14:37;;;;;;;8.07;4.72;;;;;;;;;;5056501;28;20048;-85
2023/06/20 12:17:04;;;;;;;8.13;5.10;;;;;;;;;;5081709;28;20051;-82
2023/06/20 12:19:31;;;;;;;7.15;4.90;;;;;;;;;;5071757;28;20055;-80
2023/06/20 12:21:57;;;;;;;4.78;3.70;;;;;;;;;;5067647;28;20127;-86
2023/06/20 12:24:27;;;;;;;7.78;4.38;;;;;;;;;;5068299;28;20191;-84
2023/06/20 12:26:53;;;;;;;5.88;4.40;;;;;;;;;;5087863;28;20056;-84
2023/06/20 12:29:20;;;;;;;7.60;5.18;;;;;;;;;;5088431;28;20063;-82
2023/06/20 12:31:46;;;;;;;8.32;5.18;;;;;;;;;;5085300;28;20033;-81
2023/06/20 12:34:12;;;;;;;10.75;5.13;;;;;;;;;;5068739;28;20126;-81
2023/06/20 12:36:38;;;;;;;8.07;5.18;;;;;;;;;;5085336;28;20570;-87
2023/06/20 12:39:05;;;;;;;3.92;2.33;;;;;;;;;;5089109;28;20040;-82
2023/06/20 12:41:34;;;;;;;8.65;4.30;;;;;;;;;;5088435;28;20087;-84
2023/06/20 12:44:02;;;;;;;5.03;3.70;;;;;;;;;;5089600;28;20056;-85
2023/06/20 12:46:28;;;;;;;7.53;4.25;;;;;;;;;;5088980;28;20043;-79
2023/06/20 12:48:54;;;;;;;7.65;4.63;;;;;;;;;;5053253;28;20072;-79
2023/06/20 12:51:21;;;;;;;5.93;4.28;;;;;;;;;;5069211;28;20051;-79
2023/06/20 12:53:49;;;;;;;8.35;5.50;;;;;;;;;;5052726;28;20433;-80
2023/06/20 12:56:15;;;;;;;5.97;4.57;;;;;;;;;;5089279;28;20051;-79
2023/06/20 12:58:41;;;;;;;7.30;5.03;;;;;;;;;;5072481;28;20086;-79
2023/06/20 13:01:07;;;;;;;6.65;4.65;;;;;;;;;;5089252;28;20402;-79
2023/06/20 13:03:34;;;;;;;8.43;5.72;;;;;;;;;;5067271;28;20367;-78
2023/06/20 13:06:00;;;;;;;7.25;5.20;;;;;;;;;;5076419;28;20060;-78
2023/06/20 13:08:26;;;;;;;6.68;4.93;;;;;;;;;;5063252;28;20650;-78
2023/06/20 13:10:53;;;;;;;11.98;5.90;;;;;;;;;;5054471;28;20044;-78
2023/06/20 13:13:19;;;;;;;6.57;4.28;;;;;;;;;;5070881;28;20045;-78
2023/06/20 13:15:45;;;;;;;6.80;5.13;;;;;;;;;;5068750;28;20072;-81
2023/06/20 13:18:12;;;;;;;11.23;6.25;;;;;;;;;;5071309;28;20101;-80
2023/06/20 13:20:38;;;;;;;9.02;4.95;;;;;;;;;;5071069;28;20397;-80
2023/06/20 13:23:04;;;;;;;5.30;4.10;;;;;;;;;;5070250;28;20044;-81
2023/06/20 13:25:31;;;;;;;6.95;4.88;;;;;;;;;;5070698;28;20044;-78
2023/06/20 13:27:57;;;;;;;6.78;3.80;;;;;;;;;;5055223;28;20044;-78
2023/06/20 13:30:23;;;;;;;6.30;4.63;;;;;;;;;;5084283;28;20097;-78
2023/06/20 13:32:49;;;;;;;6.50;4.38;;;;;;;;;;5082874;28;20153;-81
2023/06/20 13:35:17;;;;;;;7.72;4.82;;;;;;;;;;5075883;28;20055;-81
2023/06/20 13:37:44;;;;;;;6.05;4.53;;;;;;;;;;5061236;28;20380;-82
2023/06/20 13:40:12;;;;;;;5.28;3.28;;;;;;;;;;5074604;28;20215;-80
2023/06/20 13:42:42;;;;;;;5.68;3.80;;;;;;;;;;5073102;28;20040;-78
2023/06/20 13:45:09;;;;;;;5.88;4.05;;;;;;;;;;5069842;28;20257;-79
2023/06/20 13:47:36;;;;;;;4.47;3.50;;;;;;;;;;5051996;28;20045;-79
2023/06/20 13:50:02;;;;;;;5.93;3.88;;;;;;;;;;5071929;28;20052;-78
2023/06/20 13:52:28;;;;;;;6.57;4.88;;;;;;;;;;5071742;28;20041;-78
2023/06/20 13:54:54;;;;;;;7.35;5.40;;;;;;;;;;5072311;28;20041;-81
2023/06/20 13:57:20;;;;;;;9.85;5.88;;;;;;;;;;5074124;28;20148;-80
2023/06/20 13:59:46;;;;;;;6.68;4.78;;;;;;;;;;5071519;28;20044;-81
2023/06/20 14:02:12;;;;;;;5.88;3.60;;;;;;;;;;5089130;28;20041;-79
2023/06/20 14:04:38;;;;;;;8.25;4.55;;;;;;;;;;5083529;28;20044;-80
2023/06/20 14:07:05;;;;;;;6.95;5.15;;;;;;;;;;5087850;28;20052;-80
2023/06/20 14:09:31;;;;;;;6.13;4.55;;;;;;;;;;5082554;28;20123;-81
2023/06/20 14:11:57;;;;;;;7.65;5.13;;;;;;;;;;5075527;28;20048;-80
2023/06/20 14:14:28;;;;;;;6.07;4.32;;;;;;;;;;5066029;28;20508;-80
2023/06/20 14:16:54;;;;;;;6.10;4.80;;;;;;;;;;5090970;28;20055;-80
2023/06/20 14:19:20;;;;;;;5.50;4.20;;;;;;;;;;5089900;28;20044;-80
2023/06/20 14:21:46;;;;;;;5.80;4.22;;;;;;;;;;5067331;28;20052;-80
2023/06/20 14:24:13;;;;;;;9.35;4.63;;;;;;;;;;5073975;28;20056;-82
2023/06/20 14:26:42;;;;;;;5.45;3.20;;;;;;;;;;5070575;28;20092;-81
2023/06/20 14:29:08;;;;;;;5.45;4.05;;;;;;;;;;5074562;28;20080;-80
2023/06/20 14:31:34;;;;;;;5.78;3.42;;;;;;;;;;5073049;28;20161;-81
2023/06/20 14:34:00;;;;;;;7.35;4.30;;;;;;;;;;5072709;28;20047;-79
2023/06/20 14:36:28;;;;;;;6.57;3.85;;;;;;;;;;5065942;28;20048;-80
2023/06/20 14:38:54;;;;;;;5.55;4.35;;;;;;;;;;5088547;28;20048;-79
2023/06/20 14:41:20;;;;;;;4.55;3.60;;;;;;;;;;5072816;28;20047;-80
2023/06/20 14:43:46;;;;;;;7.97;3.97;;;;;;;;;;5069125;28;20478;-80